Time;durP1;ratioP1;P1;durP2;ratioP2;P2;SDS_P1;SDS_P2;PMS_P1;PMS_P2;Temp;Humidity;BMP_temperature;BMP_pressure;BME280_temperature;BME280_humidity;BME280_pressure;Samples;Min_cycle;Max_cycle;Signal;HPM_P1;HPM_P2
2021/03/28 00:01:41;;;;;;;0.68;0.55;;;9.60;59.50;;;;;;4919908;29;20028;-78
2021/03/28 00:04:11;;;;;;;0.60;0.40;;;9.50;59.50;;;;;;4992054;28;20407;-78
2021/03/28 00:06:50;;;;;;;1.02;0.43;;;9.50;59.40;;;;;;4960818;28;20038;-79
2021/03/28 00:09:38;;;;;;;2.47;0.70;;;9.50;59.50;;;;;;4994964;28;20069;-79
2021/03/28 00:12:10;;;;;;;1.10;0.98;;;9.40;59.50;;;;;;4993343;28;20034;-80
2021/03/28 00:14:40;;;;;;;0.60;0.35;;;9.40;59.50;;;;;;4973532;28;20039;-79
2021/03/28 00:17:19;;;;;;;1.27;0.40;;;9.40;59.60;;;;;;4983356;28;20040;-78
2021/03/28 00:20:00;;;;;;;3.53;0.95;;;9.30;59.60;;;;;;4993335;28;20038;-79
2021/03/28 00:22:33;;;;;;;3.00;0.65;;;9.30;59.60;;;;;;4978622;28;20471;-78
2021/03/28 00:25:06;;;;;;;7.53;0.77;;;9.30;59.70;;;;;;4992330;28;20046;-78
2021/03/28 00:27:39;;;;;;;0.88;0.38;;;9.20;59.80;;;;;;4974768;28;20121;-79
2021/03/28 00:30:09;;;;;;;2.25;0.50;;;9.20;59.90;;;;;;4976260;28;20030;-79
2021/03/28 00:32:40;;;;;;;5.38;1.15;;;9.20;59.90;;;;;;4992988;28;20022;-79
2021/03/28 00:35:08;;;;;;;3.78;0.60;;;9.20;59.90;;;;;;4976737;28;20055;-78
2021/03/28 00:37:34;;;;;;;1.58;0.80;;;9.20;60.00;;;;;;4993130;28;20034;-79
2021/03/28 00:40:12;;;;;;;0.82;0.20;;;9.10;60.00;;;;;;4992391;28;20037;-78
2021/03/28 00:42:45;;;;;;;3.42;0.93;;;9.10;60.00;;;;;;4976425;28;20022;-78
2021/03/28 00:45:45;;;;;;;13.52;0.90;;;9.00;60.00;;;;;;4992162;28;20058;-78
2021/03/28 00:48:18;;;;;;;1.05;0.32;;;9.00;60.20;;;;;;4992236;28;20033;-78
2021/03/28 00:50:50;;;;;;;1.83;0.60;;;9.00;60.20;;;;;;4992730;28;20041;-79
2021/03/28 00:53:56;;;;;;;1.65;0.55;;;8.90;60.20;;;;;;4993879;28;20030;-78
2021/03/28 00:56:39;;;;;;;0.30;0.20;;;8.90;60.30;;;;;;4992718;28;20053;-78
2021/03/28 00:59:19;;;;;;;0.10;0.00;;;8.80;60.30;;;;;;4992429;28;20038;-79
2021/03/28 01:02:10;;;;;;;5.35;0.70;;;8.80;60.40;;;;;;4976179;28;20037;-79
2021/03/28 01:04:54;;;;;;;0.75;0.35;;;8.70;60.70;;;;;;4980517;28;20041;-78
2021/03/28 01:07:32;;;;;;;1.02;0.38;;;8.70;60.50;;;;;;4978281;28;20026;-79
2021/03/28 01:10:16;;;;;;;1.02;0.35;;;8.70;60.50;;;;;;4990155;28;20037;-79
2021/03/28 01:12:51;;;;;;;0.57;0.22;;;8.70;60.60;;;;;;4992223;28;20026;-78
2021/03/28 01:15:23;;;;;;;0.70;0.32;;;8.60;60.60;;;;;;4994556;28;20321;-78
2021/03/28 01:18:06;;;;;;;0.95;0.25;;;8.60;60.60;;;;;;4992533;28;20035;-79
2021/03/28 01:21:10;;;;;;;1.02;0.50;;;8.60;60.60;;;;;;4992564;28;20042;-80
2021/03/28 01:23:41;;;;;;;1.67;0.45;;;8.50;60.70;;;;;;4992399;28;20057;-79
2021/03/28 01:26:37;;;;;;;1.30;0.43;;;8.50;60.60;;;;;;4992498;28;20037;-78
2021/03/28 01:29:28;;;;;;;0.98;0.30;;;8.50;60.70;;;;;;4992460;28;20296;-79
2021/03/28 01:31:57;;;;;;;2.20;0.73;;;8.40;60.70;;;;;;4992108;28;20513;-79
2021/03/28 01:34:32;;;;;;;1.00;0.40;;;8.40;60.70;;;;;;4992359;28;20026;-79
2021/03/28 01:37:07;;;;;;;1.98;0.55;;;8.40;60.80;;;;;;4991541;28;20035;-80
2021/03/28 01:39:46;;;;;;;1.23;0.43;;;8.40;60.90;;;;;;4989737;28;20038;-78
2021/03/28 01:42:43;;;;;;;0.70;0.40;;;8.40;60.90;;;;;;4972566;28;20043;-78
2021/03/28 01:45:41;;;;;;;0.40;0.30;;;8.30;61.00;;;;;;4990674;28;20043;-78
2021/03/28 01:49:02;;;;;;;1.55;0.45;;;8.30;61.00;;;;;;4987488;28;20042;-78
2021/03/28 01:51:33;;;;;;;0.82;0.47;;;8.30;61.00;;;;;;4972558;28;20053;-79
2021/03/28 01:54:15;;;;;;;0.65;0.25;;;8.30;61.00;;;;;;4952417;28;20042;-78
2021/03/28 01:57:08;;;;;;;1.67;0.98;;;8.20;61.00;;;;;;4966826;28;20043;-78
2021/03/28 01:59:48;;;;;;;1.65;0.77;;;8.20;61.10;;;;;;4959569;28;20399;-79
2021/03/28 02:02:35;;;;;;;0.93;0.30;;;8.10;61.00;;;;;;4958655;28;20042;-79
2021/03/28 02:05:14;;;;;;;4.18;0.50;;;8.10;61.20;;;;;;4956391;28;20038;-79
2021/03/28 02:08:13;;;;;;;1.10;0.40;;;8.10;61.20;;;;;;4946259;28;20042;-79
2021/03/28 02:10:56;;;;;;;2.50;0.57;;;8.10;61.30;;;;;;4962182;28;20051;-78
2021/03/28 02:13:58;;;;;;;1.13;0.88;;;8.00;61.10;;;;;;4959842;28;20034;-79
2021/03/28 02:16:25;;;;;;;0.43;0.13;;;8.00;61.40;;;;;;4959736;28;20042;-79
2021/03/28 02:18:57;;;;;;;0.38;0.20;;;7.90;61.40;;;;;;4974024;28;20038;-78
2021/03/28 02:21:28;;;;;;;3.80;0.68;;;7.90;61.40;;;;;;4943828;28;20495;-78
2021/03/28 02:24:09;;;;;;;3.15;0.75;;;7.90;61.60;;;;;;4955656;28;20038;-80
2021/03/28 02:26:48;;;;;;;0.55;0.40;;;7.90;61.60;;;;;;4974727;28;20344;-78
2021/03/28 02:29:23;;;;;;;1.02;0.40;;;7.80;61.60;;;;;;4995316;28;20034;-78
2021/03/28 02:32:34;;;;;;;1.20;0.50;;;7.80;61.70;;;;;;4995074;28;20410;-79
2021/03/28 02:35:33;;;;;;;0.45;0.25;;;7.70;61.80;;;;;;4945341;28;20401;-80
2021/03/28 02:38:14;;;;;;;0.55;0.40;;;7.70;61.80;;;;;;4923308;29;20039;-80
2021/03/28 02:40:41;;;;;;;0.90;0.45;;;7.70;61.90;;;;;;4955076;28;20043;-81
2021/03/28 02:43:24;;;;;;;2.45;0.60;;;7.70;61.70;;;;;;4939410;28;20112;-80
2021/03/28 02:46:22;;;;;;;4.60;0.98;;;7.70;61.90;;;;;;4910282;28;20054;-79
2021/03/28 02:49:26;;;;;;;0.98;0.20;;;7.70;62.00;;;;;;4881272;29;20045;-80
2021/03/28 02:52:16;;;;;;;4.28;0.70;;;7.60;61.90;;;;;;4916005;28;20542;-80
2021/03/28 02:55:15;;;;;;;4.38;1.08;;;7.60;61.90;;;;;;4884837;29;20071;-82
2021/03/28 02:58:00;;;;;;;2.30;0.80;;;7.60;61.90;;;;;;4902758;29;20504;-80
2021/03/28 03:00:39;;;;;;;1.23;0.73;;;7.50;61.90;;;;;;4914378;29;20036;-80
2021/03/28 03:03:30;;;;;;;2.67;0.63;;;7.40;62.00;;;;;;4905677;29;20044;-79
2021/03/28 03:06:14;;;;;;;2.60;0.60;;;7.40;62.20;;;;;;4930930;28;20047;-80
2021/03/28 03:08:42;;;;;;;1.70;0.80;;;7.40;62.20;;;;;;4936008;29;20057;-81
2021/03/28 03:11:27;;;;;;;0.88;0.30;;;7.40;62.20;;;;;;4934670;29;20047;-79
2021/03/28 03:14:12;;;;;;;0.35;0.20;;;7.40;62.30;;;;;;4940614;29;20035;-79
2021/03/28 03:16:56;;;;;;;1.23;0.43;;;7.40;62.20;;;;;;4950795;28;20047;-80
2021/03/28 03:19:32;;;;;;;0.73;0.45;;;7.40;62.30;;;;;;4920963;29;20038;-79
2021/03/28 03:22:36;;;;;;;0.93;0.38;;;7.40;62.30;;;;;;4935826;29;20182;-80
2021/03/28 03:25:24;;;;;;;0.77;0.60;;;7.40;62.30;;;;;;4935682;28;20047;-80
2021/03/28 03:28:12;;;;;;;0.68;0.63;;;7.40;62.30;;;;;;4991720;28;20030;-81
2021/03/28 03:30:59;;;;;;;0.60;0.30;;;7.40;62.30;;;;;;4990670;28;20042;-80
2021/03/28 03:34:03;;;;;;;1.73;0.38;;;7.30;62.20;;;;;;5003990;28;20042;-80
2021/03/28 03:36:46;;;;;;;1.27;1.17;;;7.30;62.30;;;;;;4992749;28;20042;-80
2021/03/28 03:39:24;;;;;;;1.17;0.70;;;7.30;62.40;;;;;;4971878;28;20050;-82
2021/03/28 03:42:01;;;;;;;1.70;1.10;;;7.30;62.40;;;;;;4987528;28;20039;-79
2021/03/28 03:44:53;;;;;;;0.08;0.03;;;7.20;62.40;;;;;;4989474;28;20038;-80
2021/03/28 03:47:37;;;;;;;1.40;0.50;;;7.20;62.60;;;;;;4967007;28;20395;-80
2021/03/28 03:50:13;;;;;;;0.13;0.03;;;7.20;62.60;;;;;;4934535;28;20051;-80
2021/03/28 03:52:51;;;;;;;1.00;0.43;;;7.20;62.60;;;;;;4938486;28;20532;-80
2021/03/28 03:55:35;;;;;;;1.45;0.98;;;7.20;62.60;;;;;;4967760;28;20400;-80
2021/03/28 03:58:14;;;;;;;0.43;0.30;;;7.20;62.60;;;;;;4951172;28;20720;-80
2021/03/28 04:01:20;;;;;;;2.42;0.95;;;7.10;62.60;;;;;;4954197;28;20031;-80
2021/03/28 04:04:12;;;;;;;2.58;0.32;;;7.10;62.60;;;;;;4938524;29;20038;-81
2021/03/28 04:06:41;;;;;;;2.25;0.60;;;7.10;62.70;;;;;;4916037;29;20048;-81
2021/03/28 04:09:26;;;;;;;0.10;0.10;;;7.10;62.70;;;;;;4948093;29;20039;-80
2021/03/28 04:12:07;;;;;;;1.10;0.50;;;7.00;62.70;;;;;;4935507;29;20046;-80
2021/03/28 04:15:10;;;;;;;1.10;0.43;;;7.00;62.80;;;;;;4948797;29;20500;-80
2021/03/28 04:18:29;;;;;;;5.15;0.63;;;6.90;62.80;;;;;;4941100;29;20070;-80
2021/03/28 04:21:11;;;;;;;1.30;0.32;;;7.00;62.90;;;;;;4895725;29;20040;-80
2021/03/28 04:23:39;;;;;;;3.78;0.40;;;7.00;62.90;;;;;;4894220;29;20050;-80
2021/03/28 04:26:27;;;;;;;0.60;0.50;;;6.90;62.80;;;;;;4913738;29;20054;-80
2021/03/28 04:28:57;;;;;;;2.28;0.47;;;6.90;62.90;;;;;;4926404;29;20141;-80
2021/03/28 04:32:00;;;;;;;1.33;0.40;;;6.80;62.80;;;;;;4933565;28;20028;-81
2021/03/28 04:34:37;;;;;;;0.75;0.73;;;6.80;63.30;;;;;;4933903;29;20035;-79
2021/03/28 04:37:25;;;;;;;0.63;0.50;;;6.80;62.90;;;;;;4933402;28;20051;-80
2021/03/28 04:40:15;;;;;;;0.85;0.75;;;6.80;63.00;;;;;;4913929;29;20392;-81
2021/03/28 04:42:59;;;;;;;3.33;0.82;;;6.70;63.00;;;;;;4933330;29;20040;-81
2021/03/28 04:45:34;;;;;;;0.80;0.30;;;6.70;63.00;;;;;;4934202;28;20043;-80
2021/03/28 04:48:39;;;;;;;3.33;0.55;;;6.70;63.00;;;;;;4917867;29;20035;-79
2021/03/28 04:51:26;;;;;;;2.13;0.47;;;6.70;63.10;;;;;;4920356;29;20051;-80
2021/03/28 04:53:58;;;;;;;2.63;0.70;;;6.70;63.20;;;;;;4931307;28;20049;-80
2021/03/28 04:56:38;;;;;;;0.45;0.30;;;6.60;63.20;;;;;;4986959;28;20026;-80
2021/03/28 04:59:15;;;;;;;0.87;0.47;;;6.60;63.30;;;;;;4992693;28;20399;-80
2021/03/28 05:02:08;;;;;;;1.63;0.43;;;6.60;63.40;;;;;;4992017;28;20031;-81
2021/03/28 05:04:53;;;;;;;1.70;0.73;;;6.60;63.40;;;;;;4961546;28;20062;-80
2021/03/28 05:07:47;;;;;;;1.57;0.80;;;6.60;63.40;;;;;;4976496;28;20049;-80
2021/03/28 05:10:52;;;;;;;1.23;0.53;;;6.60;63.40;;;;;;4993187;28;20045;-81
2021/03/28 05:13:43;;;;;;;1.50;0.57;;;6.50;63.50;;;;;;4976995;28;20042;-80
2021/03/28 05:16:33;;;;;;;5.93;1.00;;;6.50;63.50;;;;;;5006987;28;20051;-80
2021/03/28 05:19:34;;;;;;;0.40;0.20;;;6.50;63.50;;;;;;4975340;28;20057;-80
2021/03/28 05:22:30;;;;;;;5.43;1.73;;;6.50;63.50;;;;;;4989212;28;20321;-80
2021/03/28 05:25:11;;;;;;;1.83;0.80;;;6.40;63.60;;;;;;4974736;28;20407;-82
2021/03/28 05:27:46;;;;;;;0.95;0.47;;;6.40;64.40;;;;;;4992664;28;20038;-80
2021/03/28 05:30:37;;;;;;;3.25;1.00;;;6.40;63.60;;;;;;4993260;28;20030;-80
2021/03/28 05:33:11;;;;;;;4.07;1.25;;;6.40;63.60;;;;;;4993128;28;20285;-80
2021/03/28 05:36:31;;;;;;;1.20;0.77;;;6.30;63.60;;;;;;4995352;28;20034;-80
2021/03/28 05:39:30;;;;;;;1.33;0.50;;;6.30;63.70;;;;;;4959429;28;20162;-81
2021/03/28 05:42:02;;;;;;;1.83;0.40;;;6.30;63.60;;;;;;4975598;28;20035;-81
2021/03/28 05:44:46;;;;;;;;;;;6.30;64.40;;;;;;4975902;28;20050;-81
2021/03/28 05:47:33;;;;;;;1.07;0.77;;;6.30;63.60;;;;;;4974761;28;19918;-81
2021/03/28 05:50:18;;;;;;;0.50;0.25;;;6.30;63.60;;;;;;4956787;28;20107;-80
2021/03/28 05:52:49;;;;;;;0.63;0.35;;;6.30;63.60;;;;;;4947196;28;20054;-80
2021/03/28 05:55:52;;;;;;;2.00;1.33;;;6.30;63.60;;;;;;4975431;28;20035;-80
2021/03/28 05:58:50;;;;;;;1.00;0.67;;;6.30;63.70;;;;;;4943355;28;20042;-80
2021/03/28 06:01:25;;;;;;;1.30;0.63;;;6.30;63.70;;;;;;4974968;28;20054;-80
2021/03/28 06:04:12;;;;;;;3.07;1.27;;;6.20;63.60;;;;;;4973290;28;20027;-80
2021/03/28 06:06:56;;;;;;;5.97;1.33;;;6.20;63.70;;;;;;4957508;28;20403;-79
2021/03/28 06:09:41;;;;;;;2.23;1.27;;;6.30;63.70;;;;;;4975613;28;20034;-80
2021/03/28 06:12:30;;;;;;;1.40;0.90;;;6.30;63.60;;;;;;4960839;28;20046;-80
2021/03/28 06:15:11;;;;;;;2.77;1.33;;;6.30;63.60;;;;;;4976829;28;20071;-81
2021/03/28 06:18:02;;;;;;;2.28;0.93;;;6.30;63.60;;;;;;4994466;28;20050;-80
2021/03/28 06:21:00;;;;;;;4.60;1.92;;;6.30;63.60;;;;;;4996624;28;20050;-80
2021/03/28 06:23:55;;;;;;;2.80;0.75;;;6.30;63.60;;;;;;4995520;28;20038;-80
2021/03/28 06:26:52;;;;;;;1.20;0.67;;;6.40;63.70;;;;;;4974842;28;20385;-80
2021/03/28 06:29:27;;;;;;;0.65;0.40;;;6.40;63.70;;;;;;4970278;28;20547;-80
2021/03/28 06:32:07;;;;;;;2.43;1.37;;;6.40;63.60;;;;;;4963262;28;20046;-80
2021/03/28 06:35:10;;;;;;;2.35;0.70;;;6.30;63.80;;;;;;4974890;28;20034;-80
2021/03/28 06:38:01;;;;;;;1.90;0.77;;;6.30;64.00;;;;;;4974698;28;20050;-80
2021/03/28 06:41:18;;;;;;;1.27;0.70;;;6.40;64.00;;;;;;4974742;28;20034;-80
2021/03/28 06:44:03;;;;;;;3.85;0.57;;;6.60;63.70;;;;;;4934660;29;20302;-81
2021/03/28 06:47:05;;;;;;;1.48;0.63;;;6.80;63.10;;;;;;4932920;29;20098;-80
2021/03/28 06:49:45;;;;;;;3.33;1.05;;;7.10;62.70;;;;;;4902654;28;20124;-79
2021/03/28 06:52:26;;;;;;;1.35;0.95;;;7.40;62.20;;;;;;4919401;29;20057;-81
2021/03/28 06:55:17;;;;;;;0.95;0.60;;;7.70;61.90;;;;;;4935046;29;20032;-80
2021/03/28 06:58:20;;;;;;;3.08;0.70;;;7.90;61.40;;;;;;4934559;29;20040;-81
2021/03/28 07:01:16;;;;;;;2.03;0.75;;;8.00;61.30;;;;;;4919532;29;20095;-80
2021/03/28 07:04:19;;;;;;;4.35;0.93;;;8.10;61.40;;;;;;4928325;28;20035;-79
2021/03/28 07:06:49;;;;;;;1.23;0.63;;;8.20;61.40;;;;;;4958463;28;20055;-81
2021/03/28 07:09:38;;;;;;;2.80;1.02;;;8.40;61.30;;;;;;4943241;29;20534;-80
2021/03/28 07:12:29;;;;;;;2.80;0.80;;;8.60;61.10;;;;;;4925018;29;20048;-80
2021/03/28 07:15:14;;;;;;;;;;;8.80;60.90;;;;;;4918836;29;20044;-80
2021/03/28 07:17:40;;;;;;;1.27;0.73;;;8.90;60.80;;;;;;4940001;29;19922;-80
2021/03/28 07:20:11;;;;;;;1.10;0.43;;;9.00;60.90;;;;;;4950203;28;20439;-80
2021/03/28 07:22:55;;;;;;;;;;;9.10;61.00;;;;;;4939044;29;20047;-80
2021/03/28 07:25:27;;;;;;;0.08;0.03;;;9.10;61.10;;;;;;4940036;28;19918;-81
2021/03/28 07:28:30;;;;;;;0.80;0.43;;;9.10;61.20;;;;;;4953571;28;20035;-80
2021/03/28 07:31:20;;;;;;;2.08;0.73;;;9.20;61.40;;;;;;4950056;28;20039;-80
2021/03/28 07:34:13;;;;;;;3.08;0.77;;;9.30;61.30;;;;;;4953445;28;20032;-80
2021/03/28 07:37:13;;;;;;;3.47;0.52;;;9.50;61.10;;;;;;4934374;29;20083;-81
2021/03/28 07:40:30;;;;;;;1.98;1.00;;;9.70;61.00;;;;;;4934447;29;20047;-81
2021/03/28 07:43:21;;;;;;;5.60;1.08;;;9.90;60.80;;;;;;4896536;29;20048;-81
2021/03/28 07:45:57;;;;;;;4.13;1.67;;;10.30;60.20;;;;;;4895673;29;20044;-83
2021/03/28 07:48:31;;;;;;;1.33;0.85;;;10.50;59.90;;;;;;4885413;29;20048;-82
2021/03/28 07:51:35;;;;;;;2.38;0.80;;;10.70;59.70;;;;;;4903144;29;20055;-81
2021/03/28 07:54:18;;;;;;;3.40;0.85;;;10.80;59.60;;;;;;4918435;29;20032;-81
2021/03/28 07:57:09;;;;;;;11.15;0.88;;;10.90;59.60;;;;;;4918347;29;20040;-81
2021/03/28 08:00:15;;;;;;;2.00;0.90;;;11.10;59.50;;;;;;4918097;29;20147;-81
2021/03/28 08:03:18;;;;;;;0.95;0.50;;;11.40;59.30;;;;;;4917295;29;20512;-81
2021/03/28 08:06:05;;;;;;;1.70;0.77;;;11.70;58.90;;;;;;4902657;29;20040;-82
2021/03/28 08:08:59;;;;;;;2.53;0.77;;;11.80;58.90;;;;;;4918303;29;20039;-81
2021/03/28 08:12:06;;;;;;;1.63;0.40;;;12.00;58.80;;;;;;4899758;29;20047;-81
2021/03/28 08:14:54;;;;;;;2.40;0.52;;;12.20;58.70;;;;;;4902107;29;20402;-81
2021/03/28 08:17:39;;;;;;;1.58;0.75;;;12.20;58.60;;;;;;4935592;29;20405;-81
2021/03/28 08:20:29;;;;;;;12.77;1.05;;;12.30;58.60;;;;;;4969805;28;20062;-81
2021/03/28 08:23:32;;;;;;;2.83;0.60;;;12.50;58.60;;;;;;4975015;28;20038;-79
2021/03/28 08:26:13;;;;;;;1.35;0.50;;;12.80;58.20;;;;;;4973627;28;20045;-79
2021/03/28 08:29:04;;;;;;;3.78;0.50;;;13.00;58.10;;;;;;4973509;28;20038;-82
2021/03/28 08:32:27;;;;;;;11.90;0.98;;;13.20;57.90;;;;;;4972082;28;20025;-81
2021/03/28 08:35:29;;;;;;;3.67;0.50;;;13.40;57.70;;;;;;4942505;28;20042;-82
2021/03/28 08:38:28;;;;;;;1.13;0.55;;;13.60;57.50;;;;;;4923678;29;20424;-82
2021/03/28 08:41:06;;;;;;;5.57;0.77;;;13.70;57.50;;;;;;4936989;29;20050;-82
2021/03/28 08:44:09;;;;;;;1.17;0.30;;;13.90;57.40;;;;;;4953043;28;20038;-81
2021/03/28 08:47:02;;;;;;;4.25;0.70;;;14.00;57.30;;;;;;4939531;28;20066;-81
2021/03/28 08:49:44;;;;;;;0.65;0.38;;;14.30;57.00;;;;;;4920943;28;20035;-81
2021/03/28 08:52:10;;;;;;;6.40;0.73;;;14.50;56.80;;;;;;4922291;28;20503;-82
2021/03/28 08:55:00;;;;;;;1.17;0.55;;;14.60;56.70;;;;;;4936227;29;20408;-82
2021/03/28 08:57:35;;;;;;;3.97;1.45;;;14.70;56.70;;;;;;4953312;28;20075;-82
2021/03/28 09:00:19;;;;;;;0.40;0.20;;;14.90;56.70;;;;;;4953034;28;20039;-82
2021/03/28 09:03:15;;;;;;;1.60;0.32;;;15.00;56.50;;;;;;4936295;29;20055;-81
2021/03/28 09:05:46;;;;;;;4.30;1.05;;;15.20;56.40;;;;;;4957638;28;20042;-81
2021/03/28 09:08:21;;;;;;;2.88;0.90;;;15.30;56.20;;;;;;4988754;28;20057;-80
2021/03/28 09:11:06;;;;;;;0.75;0.28;;;15.40;56.20;;;;;;4973791;28;20035;-82
2021/03/28 09:13:45;;;;;;;6.38;0.77;;;15.50;56.20;;;;;;4992860;28;20035;-82
2021/03/28 09:16:15;;;;;;;0.60;0.28;;;15.70;56.00;;;;;;4975963;28;20058;-80
2021/03/28 09:18:46;;;;;;;0.23;0.10;;;15.90;55.80;;;;;;4975798;28;20039;-82
2021/03/28 09:21:36;;;;;;;3.72;0.20;;;16.20;55.40;;;;;;4992481;28;20035;-81
2021/03/28 09:24:33;;;;;;;1.60;0.57;;;16.70;54.90;;;;;;4992472;28;20391;-80
2021/03/28 09:27:31;;;;;;;1.75;0.22;;;17.30;54.20;;;;;;4972830;28;20046;-82
2021/03/28 09:30:06;;;;;;;2.47;0.20;;;17.80;53.60;;;;;;4989490;28;20042;-81
2021/03/28 09:33:13;;;;;;;1.48;0.00;;;18.10;53.10;;;;;;4991861;28;20039;-81
2021/03/28 09:36:30;;;;;;;0.93;0.08;;;18.40;52.90;;;;;;4976211;28;20037;-81
2021/03/28 09:39:02;;;;;;;0.30;0.08;;;18.70;52.60;;;;;;4971890;28;20051;-80
2021/03/28 09:42:04;;;;;;;0.98;0.17;;;19.00;52.40;;;;;;4971571;28;20137;-81
2021/03/28 09:45:01;;;;;;;0.13;0.00;;;19.20;52.10;;;;;;4970349;28;20396;-81
2021/03/28 09:47:51;;;;;;;0.03;0.00;;;19.50;51.90;;;;;;4941483;28;20034;-81
2021/03/28 09:50:29;;;;;;;0.23;0.00;;;19.60;51.80;;;;;;4955378;28;20035;-82
2021/03/28 09:53:27;;;;;;;0.50;0.20;;;19.70;51.80;;;;;;4953659;28;20275;-80
2021/03/28 09:56:12;;;;;;;2.63;0.22;;;19.80;51.60;;;;;;4958311;28;20058;-81
2021/03/28 09:58:59;;;;;;;0.52;0.00;;;20.00;51.40;;;;;;4971816;28;20550;-82
2021/03/28 10:01:40;;;;;;;0.03;0.00;;;20.20;51.20;;;;;;4971397;28;20450;-81
2021/03/28 10:04:17;;;;;;;1.75;0.43;;;20.40;50.90;;;;;;4971960;28;20500;-81
2021/03/28 10:06:45;;;;;;;0.22;0.20;;;20.50;50.80;;;;;;4954488;28;20146;-81
2021/03/28 10:09:13;;;;;;;1.45;0.22;;;20.50;50.80;;;;;;4939207;28;20526;-80
2021/03/28 10:12:03;;;;;;;0.30;0.03;;;20.50;50.80;;;;;;4971613;28;20545;-80
2021/03/28 10:14:41;;;;;;;1.10;0.10;;;20.60;50.60;;;;;;4988225;28;20038;-83
2021/03/28 10:17:13;;;;;;;0.43;0.00;;;20.60;50.30;;;;;;4992585;28;20043;-81
2021/03/28 10:19:43;;;;;;;0.35;0.03;;;20.60;50.30;;;;;;4992227;28;20031;-81
2021/03/28 10:22:24;;;;;;;0.10;0.00;;;20.70;50.30;;;;;;4994049;28;20030;-80
2021/03/28 10:25:09;;;;;;;;;;;20.70;50.20;;;;;;4991006;28;20038;-81
2021/03/28 10:28:03;;;;;;;0.17;0.00;;;20.70;50.00;;;;;;4993150;28;20228;-81
2021/03/28 10:30:50;;;;;;;0.00;0.00;;;20.80;50.00;;;;;;5028689;28;20039;-81
2021/03/28 10:33:35;;;;;;;0.03;0.00;;;21.00;49.80;;;;;;4995413;28;20037;-80
2021/03/28 10:36:04;;;;;;;0.00;0.00;;;21.10;49.50;;;;;;4995265;28;20041;-81
2021/03/28 10:38:52;;;;;;;0.68;0.25;;;21.20;49.40;;;;;;4996020;28;20041;-82
2021/03/28 10:41:42;;;;;;;0.55;0.20;;;21.20;49.20;;;;;;4995151;28;20038;-83
2021/03/28 10:44:14;;;;;;;6.50;0.10;;;21.20;49.10;;;;;;4996224;28;20042;-80
2021/03/28 10:46:59;;;;;;;0.57;0.00;;;21.20;49.10;;;;;;4995845;28;20042;-80
2021/03/28 10:49:53;;;;;;;1.65;0.20;;;21.20;49.00;;;;;;4981510;28;20364;-81
2021/03/28 10:52:41;;;;;;;0.00;0.00;;;21.20;48.80;;;;;;4994767;28;20025;-81
2021/03/28 10:55:22;;;;;;;0.10;0.00;;;21.20;48.70;;;;;;5009467;28;20041;-81
2021/03/28 10:57:48;;;;;;;;;;;21.20;48.70;;;;;;5006262;28;20428;-81
2021/03/28 11:00:52;;;;;;;0.10;0.00;;;21.10;48.70;;;;;;4995626;28;20040;-82
2021/03/28 11:03:41;;;;;;;0.20;0.00;;;21.10;48.60;;;;;;4997312;28;20045;-81
2021/03/28 11:06:36;;;;;;;0.63;0.20;;;21.10;48.60;;;;;;4975515;28;20046;-81
2021/03/28 11:09:16;;;;;;;0.43;0.10;;;21.20;48.30;;;;;;4969702;28;20049;-82
2021/03/28 11:12:01;;;;;;;0.10;0.05;;;21.30;48.10;;;;;;4972524;28;20030;-82
2021/03/28 11:14:36;;;;;;;0.40;0.00;;;21.40;47.90;;;;;;4974057;28;20139;-81
2021/03/28 11:17:22;;;;;;;0.20;0.00;;;21.50;47.70;;;;;;4973513;28;20047;-81
2021/03/28 11:20:06;;;;;;;0.60;0.15;;;21.60;47.60;;;;;;4971690;28;20046;-82
2021/03/28 11:23:01;;;;;;;0.10;0.03;;;21.70;47.40;;;;;;4959849;28;20037;-82
2021/03/28 11:25:35;;;;;;;0.43;0.10;;;21.70;47.10;;;;;;4975984;28;20031;-82
2021/03/28 11:28:22;;;;;;;0.00;0.00;;;21.70;47.10;;;;;;4956160;28;20042;-81
2021/03/28 11:30:52;;;;;;;1.10;0.30;;;21.80;46.90;;;;;;4968591;28;20061;-81
2021/03/28 11:33:54;;;;;;;0.20;0.00;;;21.80;46.80;;;;;;4976335;28;20045;-81
2021/03/28 11:36:25;;;;;;;3.15;0.00;;;21.70;46.80;;;;;;4915839;29;20044;-81
2021/03/28 11:39:09;;;;;;;;;;;21.80;47.40;;;;;;4918063;29;20067;-81
2021/03/28 11:41:51;;;;;;;0.10;0.00;;;21.80;46.60;;;;;;4916131;29;19954;-82
2021/03/28 11:44:19;;;;;;;0.00;0.00;;;21.90;46.40;;;;;;4895915;29;20052;-81
2021/03/28 11:46:55;;;;;;;1.75;0.35;;;22.00;46.30;;;;;;4908654;29;20399;-81
2021/03/28 11:49:22;;;;;;;1.40;0.20;;;22.00;46.20;;;;;;4935018;29;20039;-81
2021/03/28 11:51:50;;;;;;;1.13;0.10;;;22.10;46.10;;;;;;4883824;29;20147;-82
2021/03/28 11:54:24;;;;;;;0.08;0.00;;;22.10;45.90;;;;;;4930684;29;20032;-81
2021/03/28 11:57:13;;;;;;;0.00;0.00;;;22.20;45.80;;;;;;4930610;29;20409;-81
2021/03/28 11:59:47;;;;;;;2.17;0.10;;;22.20;45.70;;;;;;4929151;29;20032;-81
2021/03/28 12:02:13;;;;;;;0.47;0.10;;;22.40;45.50;;;;;;4918523;29;20058;-80
2021/03/28 12:04:40;;;;;;;0.25;0.10;;;22.40;45.40;;;;;;4931438;29;20132;-82
2021/03/28 12:07:38;;;;;;;0.00;0.00;;;22.40;45.30;;;;;;4918917;29;20027;-81
2021/03/28 12:10:04;;;;;;;2.17;0.38;;;22.30;45.10;;;;;;4933311;28;20046;-80
2021/03/28 12:12:39;;;;;;;0.20;0.00;;;22.40;45.20;;;;;;4992664;28;20038;-80
2021/03/28 12:15:46;;;;;;;0.63;0.17;;;22.40;45.10;;;;;;4994155;28;20399;-81
2021/03/28 12:18:21;;;;;;;0.20;0.00;;;22.40;44.90;;;;;;4994374;28;20042;-81
2021/03/28 12:21:03;;;;;;;0.20;0.10;;;22.50;44.80;;;;;;4994160;28;20514;-80
2021/03/28 12:23:32;;;;;;;0.47;0.10;;;22.50;44.70;;;;;;4993442;28;20395;-80
2021/03/28 12:26:05;;;;;;;1.05;0.10;;;22.60;44.50;;;;;;4993207;28;20356;-81
2021/03/28 12:28:45;;;;;;;0.85;0.10;;;22.60;44.40;;;;;;4994399;28;20034;-80
2021/03/28 12:31:40;;;;;;;2.90;0.10;;;22.70;44.40;;;;;;4978411;28;20037;-81
2021/03/28 12:34:38;;;;;;;0.52;0.20;;;22.70;44.20;;;;;;4991187;28;20025;-81
2021/03/28 12:37:10;;;;;;;0.70;0.20;;;22.70;44.00;;;;;;4976747;28;20049;-81
2021/03/28 12:39:40;;;;;;;0.00;0.00;;;22.70;44.00;;;;;;4991946;28;20483;-81
2021/03/28 12:42:24;;;;;;;1.48;0.13;;;22.70;44.00;;;;;;4992949;28;20030;-81
2021/03/28 12:44:51;;;;;;;2.50;0.10;;;22.70;43.90;;;;;;4993269;28;20042;-81
2021/03/28 12:47:29;;;;;;;0.45;0.25;;;22.80;43.70;;;;;;4993569;28;20034;-81
2021/03/28 12:50:23;;;;;;;0.10;0.00;;;22.90;43.60;;;;;;4992502;28;20026;-81
2021/03/28 12:52:54;;;;;;;8.82;0.30;;;23.00;43.40;;;;;;4988931;28;20406;-80
2021/03/28 12:55:29;;;;;;;7.60;0.10;;;23.00;43.40;;;;;;4976247;28;20376;-81
2021/03/28 12:57:59;;;;;;;2.97;0.17;;;23.00;43.30;;;;;;4989569;28;20042;-81
2021/03/28 13:00:34;;;;;;;0.00;0.00;;;23.00;43.30;;;;;;4993901;28;20041;-81
2021/03/28 13:03:10;;;;;;;0.35;0.03;;;23.10;43.10;;;;;;4992436;28;20488;-80
2021/03/28 13:05:38;;;;;;;0.63;0.20;;;23.10;43.00;;;;;;4992567;28;20022;-83
2021/03/28 13:08:10;;;;;;;0.43;0.00;;;23.10;42.90;;;;;;4992677;28;20026;-81
2021/03/28 13:10:38;;;;;;;0.10;0.00;;;23.10;42.80;;;;;;4992831;28;20395;-81
2021/03/28 13:13:16;;;;;;;1.55;0.10;;;23.20;42.80;;;;;;4992323;28;20027;-80
2021/03/28 13:15:52;;;;;;;3.65;0.15;;;23.20;42.70;;;;;;4991779;28;20034;-80
2021/03/28 13:18:27;;;;;;;0.20;0.03;;;23.10;42.60;;;;;;4992066;28;20051;-80
2021/03/28 13:21:06;;;;;;;0.57;0.30;;;23.10;42.70;;;;;;4992427;28;20419;-80
2021/03/28 13:24:00;;;;;;;0.10;0.00;;;23.00;42.60;;;;;;4973085;28;20369;-80
2021/03/28 13:26:27;;;;;;;1.10;0.10;;;23.10;42.50;;;;;;4985663;28;20387;-80
2021/03/28 13:29:02;;;;;;;0.82;0.13;;;23.10;42.50;;;;;;4992457;28;20038;-80
2021/03/28 13:31:37;;;;;;;1.05;0.20;;;23.00;42.40;;;;;;4959341;28;20034;-80
2021/03/28 13:34:20;;;;;;;1.52;0.30;;;22.90;42.40;;;;;;4993300;28;20502;-80
2021/03/28 13:37:02;;;;;;;0.17;0.00;;;22.90;42.50;;;;;;4991278;28;20037;-80
2021/03/28 13:39:28;;;;;;;0.20;0.00;;;22.90;42.40;;;;;;4994488;28;20149;-80
2021/03/28 13:41:57;;;;;;;7.07;0.17;;;22.80;42.30;;;;;;4992357;28;20015;-81
2021/03/28 13:44:42;;;;;;;0.00;0.00;;;22.90;42.30;;;;;;4992246;28;20061;-80
2021/03/28 13:47:08;;;;;;;8.50;0.35;;;22.90;42.20;;;;;;4992445;28;20035;-81
2021/03/28 13:49:49;;;;;;;0.10;0.00;;;22.90;42.20;;;;;;4976256;28;20041;-81
2021/03/28 13:52:18;;;;;;;5.85;0.30;;;22.90;42.10;;;;;;4992272;28;20045;-81
2021/03/28 13:54:46;;;;;;;0.20;0.00;;;22.90;42.10;;;;;;4992736;28;20506;-82
2021/03/28 13:57:14;;;;;;;0.68;0.00;;;23.00;42.00;;;;;;4995782;28;20383;-81
2021/03/28 14:00:00;;;;;;;6.13;0.28;;;23.00;41.90;;;;;;4995791;28;20022;-81
2021/03/28 14:02:27;;;;;;;3.40;0.20;;;23.00;41.80;;;;;;4995143;28;20022;-81
2021/03/28 14:04:55;;;;;;;0.45;0.10;;;23.00;41.80;;;;;;4980039;28;20045;-81
2021/03/28 14:07:35;;;;;;;0.10;0.10;;;23.00;41.80;;;;;;4980693;28;20038;-80
2021/03/28 14:10:05;;;;;;;0.20;0.10;;;22.90;41.60;;;;;;4993176;28;20038;-81
2021/03/28 14:12:35;;;;;;;0.40;0.10;;;23.00;41.80;;;;;;4996085;28;20034;-80
2021/03/28 14:15:20;;;;;;;1.40;0.30;;;23.00;41.70;;;;;;4995278;28;20026;-80
2021/03/28 14:18:15;;;;;;;0.30;0.10;;;23.00;41.50;;;;;;4995716;28;20034;-81
2021/03/28 14:20:49;;;;;;;7.07;1.73;;;23.00;41.50;;;;;;4996763;28;20023;-81